Terminal Aerodrome Forecast
Issued by NWS

Home | Current Version | Previous Version | Text Only | Print | Product List | Glossary On
Versions: 1 2 3 4 5 6 7 8 9 10 11 12 13 14 15 16 17 18 19 20 21
926
FTUS42 KFFC 200944 AAB
TAFPDK
TAF AMD
KPDK 200944Z 2010/2106 20005KT P6SM FEW008 BKN015 OVC030
     FM201200 21004KT P6SM BKN007 OVC015
     FM201400 22007KT P6SM SCT010 BKN025
     FM202000 22006KT P6SM SCT035
     FM210400 20005KT P6SM SCT007 OVC025=

USA.gov is the U.S. government's official web portal to all federal, state and local government web resources and services.